Dawson Creek Airport
CYDQ : rendu visible

Aérodrome :











RETROUVEZ-NOUS SUR...

 
LOGIN :

S'inscrire | Disclaimer

   EN    FR    IT 

 









Légende :    VFR   VFR Marginal   IFR   IFR Intensif   IFR Très Intensif
Visi : 
Plafond : 
>= 8 km
>= 3000ft
5 à 8 km
1000 à 3000 ft
1500m à 5 km
500 à 1000 ft
800 à 1500m
200 à 500 ft
< 800m
< 200 ft
Symboles :   Orages  Brouillard  Fortes neiges  Fortes précipitations  Vent > 20 kt






- Altitude de l'aérodrome : 2148 ft
- Code IATA : YDQ


CYDQ - Dawson Creek

DERNIER METAR :
  • 190306Z AUTO 25003KT 230V290 1 3/4SM -SN OVC014 M27/M30 A3030 RMK VIS VRB 1 1/4-3 SLP353

METARs EXPIRÉS :
  • 190252Z AUTO 26002KT 2SM -SN FEW008 OVC014 M27/M30 A3030 RMK VIS VRB 1 1/2-3 SLP354
  • 190201Z AUTO 26002KT 1 3/4SM -SN BKN016 M27/M30 A3031 RMK SLP360
  • 190144Z AUTO 27003KT 2 1/2SM -SN FEW016 M27/M31 A3032 RMK SLP361
  • 190113Z AUTO 28002KT 3SM -SN SCT013 M27/M31 A3032 RMK SLP363
  • 190107Z AUTO 27002KT 2SM -SN BKN013 M27/M31 A3032 RMK SLP364
  • 190055Z AUTO 24003KT 1 3/4SM -SN OVC015 M28/M31 A3033 RMK SLP368
  • 190045Z AUTO 25003KT 2SM -SN OVC015 M28/M31 A3033 RMK SLP367
  • 190017Z AUTO 26002KT 1 3/4SM -SN BKN015 M28/M31 A3034 RMK SLP371

TAF TAF CYDQ
Valide du 19 à 01h jusqu'au 19 à 05h UTC


190038Z 1901/1905 VRB03KT 1SM -SN OVC012
TEMPO 1901/1905 5SM -SN OVC050 RMK FCST BASED ON AUTO OBS. NXT FCST WILL BE ISSUED AT 191245Z



MET'MAP, la Météo Aéronautique d'un coup d'oeil ! - Copyright ORBIFLY Décembre 2007 - Disclaimer

ORBIFLY MET'MAP TEAM :

Programmation & Développement : Alexandra Zaïnal
Sur une idée originale de : Baudouin d'Aumeries
Assistance à la programmation : Marc-Olivier Méhu
Soutien technique & logistique : Manuel Goepfert

Contact : metmap@orbifly.com




SOURCES & CREDITS :

   NOAA       Earth
Advisory